sensor_id;sensor_type;location;lat;lon;timestamp;P1;P2;P0
78316;PMS7003;67572;50.930;18.276;2023-08-30T00:02:17;26.33;22.67;19.00
78316;PMS7003;67572;50.930;18.276;2023-08-30T00:05:21;10.00;10.00;10.00
78316;PMS7003;67572;50.930;18.276;2023-08-30T00:08:25;22.33;22.33;22.33
78316;PMS7003;67572;50.930;18.276;2023-08-30T00:11:28;19.33;17.67;15.67
78316;PMS7003;67572;50.930;18.276;2023-08-30T00:14:34;20.67;18.67;16.00
78316;PMS7003;67572;50.930;18.276;2023-08-30T00:17:37;13.00;13.00;12.00
78316;PMS7003;67572;50.930;18.276;2023-08-30T00:20:43;18.67;18.67;15.00
78316;PMS7003;67572;50.930;18.276;2023-08-30T00:23:46;21.33;20.33;16.00
78316;PMS7003;67572;50.930;18.276;2023-08-30T00:26:50;23.67;15.00;11.33
78316;PMS7003;67572;50.930;18.276;2023-08-30T00:29:53;17.33;16.67;15.00
78316;PMS7003;67572;50.930;18.276;2023-08-30T00:32:57;23.33;21.33;16.00
78316;PMS7003;67572;50.930;18.276;2023-08-30T00:36:02;7.67;7.67;7.00
78316;PMS7003;67572;50.930;18.276;2023-08-30T00:39:06;26.67;22.67;18.33
78316;PMS7003;67572;50.930;18.276;2023-08-30T00:42:10;23.67;20.33;16.67
78316;PMS7003;67572;50.930;18.276;2023-08-30T00:45:14;19.33;19.33;15.33
78316;PMS7003;67572;50.930;18.276;2023-08-30T00:48:17;21.33;19.67;18.67
78316;PMS7003;67572;50.930;18.276;2023-08-30T00:51:26;22.00;20.00;18.00
78316;PMS7003;67572;50.930;18.276;2023-08-30T00:54:30;21.00;18.33;15.67
78316;PMS7003;67572;50.930;18.276;2023-08-30T00:57:34;19.00;19.00;16.00
78316;PMS7003;67572;50.930;18.276;2023-08-30T01:00:38;24.00;21.67;15.33
78316;PMS7003;67572;50.930;18.276;2023-08-30T01:03:44;27.00;23.00;16.00
78316;PMS7003;67572;50.930;18.276;2023-08-30T01:09:53;23.33;21.00;16.33
78316;PMS7003;67572;50.930;18.276;2023-08-30T01:12:57;20.00;19.33;15.00
78316;PMS7003;67572;50.930;18.276;2023-08-30T01:16:09;22.33;19.67;15.00
78316;PMS7003;67572;50.930;18.276;2023-08-30T01:19:17;23.00;18.33;15.00
78316;PMS7003;67572;50.930;18.276;2023-08-30T01:22:38;15.67;13.67;11.67
78316;PMS7003;67572;50.930;18.276;2023-08-30T01:25:52;20.00;20.00;16.67
78316;PMS7003;67572;50.930;18.276;2023-08-30T01:29:01;18.33;18.33;16.00
78316;PMS7003;67572;50.930;18.276;2023-08-30T01:32:08;20.67;18.33;16.67
78316;PMS7003;67572;50.930;18.276;2023-08-30T01:35:12;18.33;18.33;16.67
78316;PMS7003;67572;50.930;18.276;2023-08-30T01:38:19;21.33;18.67;13.67
78316;PMS7003;67572;50.930;18.276;2023-08-30T01:41:23;22.33;22.33;19.00
78316;PMS7003;67572;50.930;18.276;2023-08-30T01:44:29;23.33;22.00;21.00
78316;PMS7003;67572;50.930;18.276;2023-08-30T01:47:33;23.33;21.33;18.00
78316;PMS7003;67572;50.930;18.276;2023-08-30T01:50:39;21.00;19.00;15.00
78316;PMS7003;67572;50.930;18.276;2023-08-30T01:53:44;15.00;15.00;12.67
78316;PMS7003;67572;50.930;18.276;2023-08-30T01:56:49;21.00;21.00;16.00
78316;PMS7003;67572;50.930;18.276;2023-08-30T01:59:54;18.33;17.00;13.33
78316;PMS7003;67572;50.930;18.276;2023-08-30T02:02:57;19.67;18.00;14.33
78316;PMS7003;67572;50.930;18.276;2023-08-30T02:06:02;15.67;14.33;10.00
78316;PMS7003;67572;50.930;18.276;2023-08-30T02:09:13;13.00;13.00;12.67
78316;PMS7003;67572;50.930;18.276;2023-08-30T02:12:20;21.00;19.00;15.67
78316;PMS7003;67572;50.930;18.276;2023-08-30T02:15:29;18.00;18.00;14.33
78316;PMS7003;67572;50.930;18.276;2023-08-30T02:18:35;16.33;15.00;12.00
78316;PMS7003;67572;50.930;18.276;2023-08-30T02:21:40;15.00;13.00;10.00
78316;PMS7003;67572;50.930;18.276;2023-08-30T02:24:45;17.00;17.00;14.33
78316;PMS7003;67572;50.930;18.276;2023-08-30T02:27:48;16.00;15.67;12.67
78316;PMS7003;67572;50.930;18.276;2023-08-30T02:30:53;16.67;15.00;13.67
78316;PMS7003;67572;50.930;18.276;2023-08-30T02:33:57;16.00;14.33;12.33
78316;PMS7003;67572;50.930;18.276;2023-08-30T02:37:00;16.00;16.00;13.67
78316;PMS7003;67572;50.930;18.276;2023-08-30T02:40:04;15.00;13.00;10.67
78316;PMS7003;67572;50.930;18.276;2023-08-30T02:43:08;21.33;18.33;13.67
78316;PMS7003;67572;50.930;18.276;2023-08-30T02:46:13;16.00;15.00;12.00
78316;PMS7003;67572;50.930;18.276;2023-08-30T02:49:17;15.33;12.33;12.00
78316;PMS7003;67572;50.930;18.276;2023-08-30T02:52:20;15.00;14.33;12.33
78316;PMS7003;67572;50.930;18.276;2023-08-30T02:55:23;24.00;19.00;15.00
78316;PMS7003;67572;50.930;18.276;2023-08-30T02:58:27;17.00;17.00;14.00
78316;PMS7003;67572;50.930;18.276;2023-08-30T03:01:36;12.67;12.33;11.33
78316;PMS7003;67572;50.930;18.276;2023-08-30T03:04:40;15.67;15.67;13.67
78316;PMS7003;67572;50.930;18.276;2023-08-30T03:07:44;13.00;13.00;10.00
78316;PMS7003;67572;50.930;18.276;2023-08-30T03:10:48;14.33;14.33;12.00
78316;PMS7003;67572;50.930;18.276;2023-08-30T03:13:53;10.00;10.00;9.00
78316;PMS7003;67572;50.930;18.276;2023-08-30T03:16:58;18.00;16.00;12.67
78316;PMS7003;67572;50.930;18.276;2023-08-30T03:20:02;12.00;12.00;12.00
78316;PMS7003;67572;50.930;18.276;2023-08-30T03:23:07;12.67;12.33;12.00
78316;PMS7003;67572;50.930;18.276;2023-08-30T03:26:11;9.67;9.67;8.67
78316;PMS7003;67572;50.930;18.276;2023-08-30T03:29:15;15.00;15.00;12.67
78316;PMS7003;67572;50.930;18.276;2023-08-30T03:32:20;13.33;13.33;11.33
78316;PMS7003;67572;50.930;18.276;2023-08-30T03:35:24;15.67;12.33;10.00
78316;PMS7003;67572;50.930;18.276;2023-08-30T03:38:27;15.67;13.67;12.00
78316;PMS7003;67572;50.930;18.276;2023-08-30T03:41:31;9.00;9.00;7.67
78316;PMS7003;67572;50.930;18.276;2023-08-30T03:44:37;15.00;14.33;11.33
78316;PMS7003;67572;50.930;18.276;2023-08-30T03:49:48;21.00;21.00;17.00
78316;PMS7003;67572;50.930;18.276;2023-08-30T03:52:52;15.33;15.33;12.67
78316;PMS7003;67572;50.930;18.276;2023-08-30T03:55:56;15.33;10.00;8.33
78316;PMS7003;67572;50.930;18.276;2023-08-30T03:58:59;10.00;10.00;7.67
78316;PMS7003;67572;50.930;18.276;2023-08-30T04:02:03;4.00;4.00;4.00
78316;PMS7003;67572;50.930;18.276;2023-08-30T04:05:08;12.33;12.00;10.67
78316;PMS7003;67572;50.930;18.276;2023-08-30T04:08:12;13.00;13.00;12.00
78316;PMS7003;67572;50.930;18.276;2023-08-30T04:11:16;15.33;14.67;13.00
78316;PMS7003;67572;50.930;18.276;2023-08-30T04:14:19;13.00;12.33;12.00
78316;PMS7003;67572;50.930;18.276;2023-08-30T04:17:25;5.33;3.67;3.67
78316;PMS7003;67572;50.930;18.276;2023-08-30T04:20:30;14.33;14.33;10.00
78316;PMS7003;67572;50.930;18.276;2023-08-30T04:23:35;11.33;10.67;9.33
78316;PMS7003;67572;50.930;18.276;2023-08-30T04:26:39;12.00;12.00;10.00
78316;PMS7003;67572;50.930;18.276;2023-08-30T04:29:43;9.00;9.00;9.00
78316;PMS7003;67572;50.930;18.276;2023-08-30T04:32:47;12.33;11.33;9.67
78316;PMS7003;67572;50.930;18.276;2023-08-30T04:35:52;10.00;10.00;9.00
78316;PMS7003;67572;50.930;18.276;2023-08-30T04:38:56;13.00;13.00;9.00
78316;PMS7003;67572;50.930;18.276;2023-08-30T04:42:05;7.00;7.00;7.00
78316;PMS7003;67572;50.930;18.276;2023-08-30T04:45:09;9.33;9.33;9.33
78316;PMS7003;67572;50.930;18.276;2023-08-30T04:48:13;16.33;12.67;9.00
78316;PMS7003;67572;50.930;18.276;2023-08-30T04:51:19;6.00;6.00;5.33
78316;PMS7003;67572;50.930;18.276;2023-08-30T04:54:22;4.67;4.67;4.00
78316;PMS7003;67572;50.930;18.276;2023-08-30T04:57:26;7.67;5.67;4.67
78316;PMS7003;67572;50.930;18.276;2023-08-30T05:00:29;11.00;9.33;6.67
78316;PMS7003;67572;50.930;18.276;2023-08-30T05:03:33;3.00;3.00;1.67
78316;PMS7003;67572;50.930;18.276;2023-08-30T05:06:39;3.67;3.67;3.33
78316;PMS7003;67572;50.930;18.276;2023-08-30T05:09:42;3.00;3.00;3.00
78316;PMS7003;67572;50.930;18.276;2023-08-30T05:12:46;1.00;1.00;1.00
78316;PMS7003;67572;50.930;18.276;2023-08-30T05:15:53;3.00;3.00;3.00
78316;PMS7003;67572;50.930;18.276;2023-08-30T05:18:57;1.67;1.67;1.67
78316;PMS7003;67572;50.930;18.276;2023-08-30T05:22:02;1.00;1.00;1.00
78316;PMS7003;67572;50.930;18.276;2023-08-30T05:25:07;0.67;0.00;0.00
78316;PMS7003;67572;50.930;18.276;2023-08-30T05:28:10;0.00;0.00;0.00
78316;PMS7003;67572;50.930;18.276;2023-08-30T05:31:14;0.33;0.00;0.00
78316;PMS7003;67572;50.930;18.276;2023-08-30T05:34:47;3.00;0.00;0.00
78316;PMS7003;67572;50.930;18.276;2023-08-30T05:38:16;0.67;0.67;0.67
78316;PMS7003;67572;50.930;18.276;2023-08-30T05:41:27;0.00;0.00;0.00
78316;PMS7003;67572;50.930;18.276;2023-08-30T05:44:30;0.33;0.33;0.00
78316;PMS7003;67572;50.930;18.276;2023-08-30T05:47:34;2.33;2.33;2.33
78316;PMS7003;67572;50.930;18.276;2023-08-30T05:50:37;1.67;1.67;1.67
78316;PMS7003;67572;50.930;18.276;2023-08-30T05:53:43;1.00;1.00;1.00
78316;PMS7003;67572;50.930;18.276;2023-08-30T05:56:47;1.00;1.00;1.00
78316;PMS7003;67572;50.930;18.276;2023-08-30T05:59:50;3.00;0.67;0.67
78316;PMS7003;67572;50.930;18.276;2023-08-30T06:02:54;3.00;3.00;3.00
78316;PMS7003;67572;50.930;18.276;2023-08-30T06:05:58;3.00;3.00;3.00
78316;PMS7003;67572;50.930;18.276;2023-08-30T06:09:03;3.33;3.33;3.33
78316;PMS7003;67572;50.930;18.276;2023-08-30T06:12:07;3.00;3.00;3.00
78316;PMS7003;67572;50.930;18.276;2023-08-30T06:15:11;2.33;2.33;2.33
78316;PMS7003;67572;50.930;18.276;2023-08-30T06:18:15;2.33;2.33;2.33
78316;PMS7003;67572;50.930;18.276;2023-08-30T06:21:18;3.67;2.33;2.33
78316;PMS7003;67572;50.930;18.276;2023-08-30T06:24:23;4.00;4.00;3.67
78316;PMS7003;67572;50.930;18.276;2023-08-30T06:27:26;1.67;1.67;1.00
78316;PMS7003;67572;50.930;18.276;2023-08-30T06:30:30;1.67;1.67;1.67
78316;PMS7003;67572;50.930;18.276;2023-08-30T06:33:33;6.00;6.00;4.00
78316;PMS7003;67572;50.930;18.276;2023-08-30T06:36:39;1.00;1.00;1.00
78316;PMS7003;67572;50.930;18.276;2023-08-30T06:39:43;4.67;3.00;3.00
78316;PMS7003;67572;50.930;18.276;2023-08-30T06:42:47;3.00;3.00;3.00
78316;PMS7003;67572;50.930;18.276;2023-08-30T06:45:50;3.33;3.33;3.00
78316;PMS7003;67572;50.930;18.276;2023-08-30T06:48:55;6.00;4.00;4.00
78316;PMS7003;67572;50.930;18.276;2023-08-30T06:51:58;3.67;2.33;1.67
78316;PMS7003;67572;50.930;18.276;2023-08-30T06:55:05;6.00;4.00;4.00
78316;PMS7003;67572;50.930;18.276;2023-08-30T06:58:09;6.00;6.00;4.67
78316;PMS7003;67572;50.930;18.276;2023-08-30T07:01:12;3.00;3.00;3.00
78316;PMS7003;67572;50.930;18.276;2023-08-30T07:04:16;5.67;4.00;3.00
78316;PMS7003;67572;50.930;18.276;2023-08-30T07:07:20;1.00;1.00;1.00
78316;PMS7003;67572;50.930;18.276;2023-08-30T07:10:24;1.00;1.00;0.00
78316;PMS7003;67572;50.930;18.276;2023-08-30T07:13:28;3.67;3.00;3.00
78316;PMS7003;67572;50.930;18.276;2023-08-30T07:16:31;1.00;1.00;1.00
78316;PMS7003;67572;50.930;18.276;2023-08-30T07:19:35;3.67;3.67;3.00
78316;PMS7003;67572;50.930;18.276;2023-08-30T07:22:39;3.00;3.00;2.33
78316;PMS7003;67572;50.930;18.276;2023-08-30T07:25:44;3.00;1.00;1.00
78316;PMS7003;67572;50.930;18.276;2023-08-30T07:39:34;1.00;1.00;1.00
78316;PMS7003;67572;50.930;18.276;2023-08-30T07:42:39;4.00;4.00;3.00
78316;PMS7003;67572;50.930;18.276;2023-08-30T07:45:43;6.00;4.00;4.00
78316;PMS7003;67572;50.930;18.276;2023-08-30T07:48:47;1.00;1.00;1.00
78316;PMS7003;67572;50.930;18.276;2023-08-30T07:51:50;1.00;1.00;1.00
78316;PMS7003;67572;50.930;18.276;2023-08-30T07:54:54;3.00;3.00;3.00
78316;PMS7003;67572;50.930;18.276;2023-08-30T07:57:59;1.00;1.00;1.00
78316;PMS7003;67572;50.930;18.276;2023-08-30T08:01:03;0.33;0.33;0.33
78316;PMS7003;67572;50.930;18.276;2023-08-30T08:04:07;1.00;1.00;1.00
78316;PMS7003;67572;50.930;18.276;2023-08-30T08:07:10;1.00;1.00;0.67
78316;PMS7003;67572;50.930;18.276;2023-08-30T08:10:14;3.00;3.00;2.33
78316;PMS7003;67572;50.930;18.276;2023-08-30T08:13:19;1.00;1.00;1.00
78316;PMS7003;67572;50.930;18.276;2023-08-30T08:16:24;3.67;3.67;3.67
78316;PMS7003;67572;50.930;18.276;2023-08-30T08:19:27;7.00;6.00;6.00
78316;PMS7003;67572;50.930;18.276;2023-08-30T08:22:31;9.67;6.67;6.33
78316;PMS7003;67572;50.930;18.276;2023-08-30T08:25:34;6.00;6.00;6.00
78316;PMS7003;67572;50.930;18.276;2023-08-30T08:28:39;5.33;5.33;5.33
78316;PMS7003;67572;50.930;18.276;2023-08-30T08:31:43;5.33;5.33;3.33
78316;PMS7003;67572;50.930;18.276;2023-08-30T08:34:46;2.67;2.33;2.33
78316;PMS7003;67572;50.930;18.276;2023-08-30T08:37:50;3.67;3.67;3.33
78316;PMS7003;67572;50.930;18.276;2023-08-30T08:40:59;3.67;3.00;3.00
78316;PMS7003;67572;50.930;18.276;2023-08-30T08:44:07;3.00;1.00;1.00
78316;PMS7003;67572;50.930;18.276;2023-08-30T08:47:11;3.33;3.33;3.00
78316;PMS7003;67572;50.930;18.276;2023-08-30T08:50:15;3.00;3.00;3.00
78316;PMS7003;67572;50.930;18.276;2023-08-30T08:53:19;3.33;3.33;3.00
78316;PMS7003;67572;50.930;18.276;2023-08-30T08:56:23;4.00;4.00;4.00
78316;PMS7003;67572;50.930;18.276;2023-08-30T08:59:29;4.00;4.00;3.67
78316;PMS7003;67572;50.930;18.276;2023-08-30T09:02:32;3.00;3.00;3.00
78316;PMS7003;67572;50.930;18.276;2023-08-30T09:05:36;6.00;3.00;3.00
78316;PMS7003;67572;50.930;18.276;2023-08-30T09:08:42;3.33;3.33;3.33
78316;PMS7003;67572;50.930;18.276;2023-08-30T09:11:46;6.00;4.00;4.00
78316;PMS7003;67572;50.930;18.276;2023-08-30T09:14:54;4.00;2.33;1.67
78316;PMS7003;67572;50.930;18.276;2023-08-30T09:17:59;3.00;3.00;3.00
78316;PMS7003;67572;50.930;18.276;2023-08-30T09:21:05;3.00;3.00;3.00
78316;PMS7003;67572;50.930;18.276;2023-08-30T09:24:09;3.33;3.00;3.00
78316;PMS7003;67572;50.930;18.276;2023-08-30T09:27:12;3.00;1.67;1.67
78316;PMS7003;67572;50.930;18.276;2023-08-30T09:30:22;3.33;3.33;3.33
78316;PMS7003;67572;50.930;18.276;2023-08-30T09:33:32;3.00;3.00;3.00
78316;PMS7003;67572;50.930;18.276;2023-08-30T09:36:38;1.00;1.00;1.00
78316;PMS7003;67572;50.930;18.276;2023-08-30T09:39:48;1.00;1.00;1.00
78316;PMS7003;67572;50.930;18.276;2023-08-30T09:42:52;3.00;3.00;3.00
78316;PMS7003;67572;50.930;18.276;2023-08-30T09:46:15;0.00;0.00;0.00
78316;PMS7003;67572;50.930;18.276;2023-08-30T09:49:20;3.00;1.00;0.00
78316;PMS7003;67572;50.930;18.276;2023-08-30T09:52:24;3.00;3.00;3.00
78316;PMS7003;67572;50.930;18.276;2023-08-30T09:55:31;0.67;0.67;0.67
78316;PMS7003;67572;50.930;18.276;2023-08-30T09:58:36;1.00;1.00;0.00
78316;PMS7003;67572;50.930;18.276;2023-08-30T10:01:45;3.33;3.33;3.33
78316;PMS7003;67572;50.930;18.276;2023-08-30T10:04:51;3.67;3.67;3.67
78316;PMS7003;67572;50.930;18.276;2023-08-30T10:07:56;3.00;3.00;3.00
78316;PMS7003;67572;50.930;18.276;2023-08-30T10:11:00;4.67;4.67;4.00
78316;PMS7003;67572;50.930;18.276;2023-08-30T10:14:05;4.00;4.00;4.00
78316;PMS7003;67572;50.930;18.276;2023-08-30T10:17:11;0.33;0.33;0.33
78316;PMS7003;67572;50.930;18.276;2023-08-30T10:20:17;3.00;1.67;1.67
78316;PMS7003;67572;50.930;18.276;2023-08-30T10:23:22;1.00;1.00;1.00
78316;PMS7003;67572;50.930;18.276;2023-08-30T10:26:27;1.00;1.00;1.00
78316;PMS7003;67572;50.930;18.276;2023-08-30T10:29:34;3.00;3.00;3.00
78316;PMS7003;67572;50.930;18.276;2023-08-30T10:32:40;1.00;1.00;1.00
78316;PMS7003;67572;50.930;18.276;2023-08-30T10:35:48;3.00;3.00;3.00
78316;PMS7003;67572;50.930;18.276;2023-08-30T10:38:53;3.00;1.00;1.00
78316;PMS7003;67572;50.930;18.276;2023-08-30T10:41:57;0.00;0.00;0.00
78316;PMS7003;67572;50.930;18.276;2023-08-30T10:45:02;0.00;0.00;0.00
78316;PMS7003;67572;50.930;18.276;2023-08-30T10:48:11;1.00;1.00;1.00
78316;PMS7003;67572;50.930;18.276;2023-08-30T10:51:22;1.00;1.00;1.00
78316;PMS7003;67572;50.930;18.276;2023-08-30T10:54:38;0.67;0.67;0.00
78316;PMS7003;67572;50.930;18.276;2023-08-30T10:57:42;0.00;0.00;0.00
78316;PMS7003;67572;50.930;18.276;2023-08-30T11:00:46;3.00;3.00;2.33
78316;PMS7003;67572;50.930;18.276;2023-08-30T11:03:52;0.33;0.33;0.33
78316;PMS7003;67572;50.930;18.276;2023-08-30T11:07:15;1.00;0.00;0.00
78316;PMS7003;67572;50.930;18.276;2023-08-30T11:10:19;0.00;0.00;0.00
78316;PMS7003;67572;50.930;18.276;2023-08-30T11:13:23;1.00;1.00;1.00
78316;PMS7003;67572;50.930;18.276;2023-08-30T11:16:27;1.00;1.00;1.00
78316;PMS7003;67572;50.930;18.276;2023-08-30T11:19:32;0.00;0.00;0.00
78316;PMS7003;67572;50.930;18.276;2023-08-30T11:22:36;1.00;1.00;1.00
78316;PMS7003;67572;50.930;18.276;2023-08-30T11:25:41;0.00;0.00;0.00
78316;PMS7003;67572;50.930;18.276;2023-08-30T11:28:44;0.00;0.00;0.00
78316;PMS7003;67572;50.930;18.276;2023-08-30T11:31:50;0.00;0.00;0.00
78316;PMS7003;67572;50.930;18.276;2023-08-30T11:34:58;1.00;1.00;1.00
78316;PMS7003;67572;50.930;18.276;2023-08-30T11:38:02;1.00;1.00;0.67
78316;PMS7003;67572;50.930;18.276;2023-08-30T11:41:06;0.00;0.00;0.00
78316;PMS7003;67572;50.930;18.276;2023-08-30T11:44:10;0.67;0.67;0.67
78316;PMS7003;67572;50.930;18.276;2023-08-30T11:47:17;1.33;0.33;0.33
78316;PMS7003;67572;50.930;18.276;2023-08-30T11:50:22;0.00;0.00;0.00
78316;PMS7003;67572;50.930;18.276;2023-08-30T11:53:28;0.00;0.00;0.00
78316;PMS7003;67572;50.930;18.276;2023-08-30T11:56:32;0.00;0.00;0.00
78316;PMS7003;67572;50.930;18.276;2023-08-30T11:59:37;0.00;0.00;0.00
78316;PMS7003;67572;50.930;18.276;2023-08-30T12:02:42;3.00;1.00;1.00
78316;PMS7003;67572;50.930;18.276;2023-08-30T12:05:47;0.00;0.00;0.00
78316;PMS7003;67572;50.930;18.276;2023-08-30T12:08:57;1.00;1.00;1.00
78316;PMS7003;67572;50.930;18.276;2023-08-30T12:12:04;1.00;1.00;1.00
78316;PMS7003;67572;50.930;18.276;2023-08-30T12:15:09;0.67;0.67;0.67
78316;PMS7003;67572;50.930;18.276;2023-08-30T12:18:14;1.00;1.00;1.00
78316;PMS7003;67572;50.930;18.276;2023-08-30T12:21:19;0.33;0.33;0.33
78316;PMS7003;67572;50.930;18.276;2023-08-30T12:24:22;1.00;1.00;1.00
78316;PMS7003;67572;50.930;18.276;2023-08-30T12:27:26;0.00;0.00;0.00
78316;PMS7003;67572;50.930;18.276;2023-08-30T12:30:29;0.00;0.00;0.00
78316;PMS7003;67572;50.930;18.276;2023-08-30T12:33:33;0.67;0.67;0.67
78316;PMS7003;67572;50.930;18.276;2023-08-30T12:36:38;0.00;0.00;0.00
78316;PMS7003;67572;50.930;18.276;2023-08-30T12:39:42;1.00;1.00;1.00
78316;PMS7003;67572;50.930;18.276;2023-08-30T12:42:46;1.00;1.00;1.00
78316;PMS7003;67572;50.930;18.276;2023-08-30T12:45:49;1.67;1.67;1.00
78316;PMS7003;67572;50.930;18.276;2023-08-30T12:48:53;6.00;5.33;5.33
78316;PMS7003;67572;50.930;18.276;2023-08-30T12:52:01;3.67;3.67;3.67
78316;PMS7003;67572;50.930;18.276;2023-08-30T12:55:05;3.00;3.00;3.00
78316;PMS7003;67572;50.930;18.276;2023-08-30T12:58:08;4.00;4.00;4.00
78316;PMS7003;67572;50.930;18.276;2023-08-30T13:01:13;3.00;3.00;3.00
78316;PMS7003;67572;50.930;18.276;2023-08-30T13:04:17;1.67;1.67;1.67
78316;PMS7003;67572;50.930;18.276;2023-08-30T13:07:22;1.00;1.00;1.00
78316;PMS7003;67572;50.930;18.276;2023-08-30T13:10:26;3.00;3.00;3.00
78316;PMS7003;67572;50.930;18.276;2023-08-30T13:13:30;1.00;1.00;1.00
78316;PMS7003;67572;50.930;18.276;2023-08-30T13:16:33;1.00;1.00;1.00
78316;PMS7003;67572;50.930;18.276;2023-08-30T13:19:37;1.00;1.00;1.00
78316;PMS7003;67572;50.930;18.276;2023-08-30T13:22:42;3.00;3.00;3.00
78316;PMS7003;67572;50.930;18.276;2023-08-30T13:25:47;0.00;0.00;0.00
78316;PMS7003;67572;50.930;18.276;2023-08-30T13:28:50;7.00;7.00;7.00
78316;PMS7003;67572;50.930;18.276;2023-08-30T13:31:55;3.00;3.00;3.00
78316;PMS7003;67572;50.930;18.276;2023-08-30T13:34:58;3.00;3.00;1.67
78316;PMS7003;67572;50.930;18.276;2023-08-30T13:38:04;0.33;0.33;0.33
78316;PMS7003;67572;50.930;18.276;2023-08-30T13:41:07;0.33;0.33;0.33
78316;PMS7003;67572;50.930;18.276;2023-08-30T13:44:11;2.33;2.33;2.33
78316;PMS7003;67572;50.930;18.276;2023-08-30T13:47:14;3.00;3.00;3.00
78316;PMS7003;67572;50.930;18.276;2023-08-30T13:50:18;0.00;0.00;0.00
78316;PMS7003;67572;50.930;18.276;2023-08-30T13:53:27;1.67;1.67;1.00
78316;PMS7003;67572;50.930;18.276;2023-08-30T13:56:30;1.00;1.00;1.00
78316;PMS7003;67572;50.930;18.276;2023-08-30T13:59:34;1.00;1.00;0.00
78316;PMS7003;67572;50.930;18.276;2023-08-30T14:02:38;0.00;0.00;0.00
78316;PMS7003;67572;50.930;18.276;2023-08-30T14:05:42;3.67;3.67;3.33
78316;PMS7003;67572;50.930;18.276;2023-08-30T14:08:47;1.67;1.67;1.67
78316;PMS7003;67572;50.930;18.276;2023-08-30T14:11:51;6.33;4.00;4.00
78316;PMS7003;67572;50.930;18.276;2023-08-30T14:14:55;0.00;0.00;0.00
78316;PMS7003;67572;50.930;18.276;2023-08-30T14:17:58;1.67;1.67;1.67
78316;PMS7003;67572;50.930;18.276;2023-08-30T14:21:02;0.00;0.00;0.00
78316;PMS7003;67572;50.930;18.276;2023-08-30T14:24:07;3.67;3.67;3.00
78316;PMS7003;67572;50.930;18.276;2023-08-30T14:27:12;1.00;1.00;1.00
78316;PMS7003;67572;50.930;18.276;2023-08-30T14:30:16;1.67;0.33;0.33
78316;PMS7003;67572;50.930;18.276;2023-08-30T14:33:19;3.33;3.33;3.33
78316;PMS7003;67572;50.930;18.276;2023-08-30T14:36:23;1.00;1.00;1.00
78316;PMS7003;67572;50.930;18.276;2023-08-30T14:39:28;2.33;2.33;1.00
78316;PMS7003;67572;50.930;18.276;2023-08-30T14:42:32;1.00;1.00;1.00
78316;PMS7003;67572;50.930;18.276;2023-08-30T14:45:36;3.00;0.33;0.33
78316;PMS7003;67572;50.930;18.276;2023-08-30T14:48:39;0.67;0.67;0.67
78316;PMS7003;67572;50.930;18.276;2023-08-30T14:51:43;1.00;1.00;1.00
78316;PMS7003;67572;50.930;18.276;2023-08-30T14:54:50;0.00;0.00;0.00
78316;PMS7003;67572;50.930;18.276;2023-08-30T14:57:53;3.00;0.33;0.33
78316;PMS7003;67572;50.930;18.276;2023-08-30T15:00:57;0.00;0.00;0.00
78316;PMS7003;67572;50.930;18.276;2023-08-30T15:04:02;3.00;3.00;3.00
78316;PMS7003;67572;50.930;18.276;2023-08-30T15:07:05;0.67;0.67;0.67
78316;PMS7003;67572;50.930;18.276;2023-08-30T15:10:10;2.33;0.33;0.00
78316;PMS7003;67572;50.930;18.276;2023-08-30T15:13:14;1.00;1.00;1.00
78316;PMS7003;67572;50.930;18.276;2023-08-30T15:16:18;1.00;1.00;1.00
78316;PMS7003;67572;50.930;18.276;2023-08-30T15:19:21;0.67;0.67;0.67
78316;PMS7003;67572;50.930;18.276;2023-08-30T15:22:25;1.00;1.00;1.00
78316;PMS7003;67572;50.930;18.276;2023-08-30T15:25:29;1.00;1.00;1.00
78316;PMS7003;67572;50.930;18.276;2023-08-30T15:28:34;1.67;1.67;1.00
78316;PMS7003;67572;50.930;18.276;2023-08-30T15:31:37;0.33;0.33;0.33
78316;PMS7003;67572;50.930;18.276;2023-08-30T15:34:41;3.00;0.33;0.33
78316;PMS7003;67572;50.930;18.276;2023-08-30T15:37:45;0.33;0.33;0.33
78316;PMS7003;67572;50.930;18.276;2023-08-30T15:40:50;2.33;2.33;2.33
78316;PMS7003;67572;50.930;18.276;2023-08-30T15:43:56;1.00;1.00;1.00
78316;PMS7003;67572;50.930;18.276;2023-08-30T15:47:00;0.00;0.00;0.00
78316;PMS7003;67572;50.930;18.276;2023-08-30T15:50:04;0.00;0.00;0.00
78316;PMS7003;67572;50.930;18.276;2023-08-30T15:53:08;1.00;1.00;1.00
78316;PMS7003;67572;50.930;18.276;2023-08-30T15:56:13;0.00;0.00;0.00
78316;PMS7003;67572;50.930;18.276;2023-08-30T15:59:17;1.00;1.00;1.00
78316;PMS7003;67572;50.930;18.276;2023-08-30T16:02:20;1.67;1.00;1.00
78316;PMS7003;67572;50.930;18.276;2023-08-30T16:05:26;1.00;0.00;0.00
78316;PMS7003;67572;50.930;18.276;2023-08-30T16:08:29;1.67;1.67;1.00
78316;PMS7003;67572;50.930;18.276;2023-08-30T16:11:34;1.00;1.00;1.00
78316;PMS7003;67572;50.930;18.276;2023-08-30T16:14:38;0.00;0.00;0.00
78316;PMS7003;67572;50.930;18.276;2023-08-30T16:17:42;1.00;1.00;1.00
78316;PMS7003;67572;50.930;18.276;2023-08-30T16:20:48;1.00;1.00;1.00
78316;PMS7003;67572;50.930;18.276;2023-08-30T16:23:53;0.00;0.00;0.00
78316;PMS7003;67572;50.930;18.276;2023-08-30T16:26:57;2.33;1.00;1.00
78316;PMS7003;67572;50.930;18.276;2023-08-30T16:30:02;1.00;1.00;1.00
78316;PMS7003;67572;50.930;18.276;2023-08-30T16:33:06;0.00;0.00;0.00
78316;PMS7003;67572;50.930;18.276;2023-08-30T16:36:10;0.67;0.67;0.67
78316;PMS7003;67572;50.930;18.276;2023-08-30T16:39:15;2.00;1.00;1.00
78316;PMS7003;67572;50.930;18.276;2023-08-30T16:42:20;0.67;0.67;0.67
78316;PMS7003;67572;50.930;18.276;2023-08-30T16:45:23;0.00;0.00;0.00
78316;PMS7003;67572;50.930;18.276;2023-08-30T16:48:27;0.00;0.00;0.00
78316;PMS7003;67572;50.930;18.276;2023-08-30T16:51:31;1.00;1.00;1.00
78316;PMS7003;67572;50.930;18.276;2023-08-30T16:54:35;0.00;0.00;0.00
78316;PMS7003;67572;50.930;18.276;2023-08-30T16:57:40;1.00;1.00;1.00
78316;PMS7003;67572;50.930;18.276;2023-08-30T17:00:43;3.00;3.00;3.00
78316;PMS7003;67572;50.930;18.276;2023-08-30T17:03:47;7.33;3.00;3.00
78316;PMS7003;67572;50.930;18.276;2023-08-30T17:06:51;3.00;3.00;3.00
78316;PMS7003;67572;50.930;18.276;2023-08-30T17:10:01;0.00;0.00;0.00
78316;PMS7003;67572;50.930;18.276;2023-08-30T17:18:10;1.00;1.00;1.00
78316;PMS7003;67572;50.930;18.276;2023-08-30T17:21:20;0.00;0.00;0.00
78316;PMS7003;67572;50.930;18.276;2023-08-30T17:24:23;0.00;0.00;0.00
78316;PMS7003;67572;50.930;18.276;2023-08-30T17:27:27;0.00;0.00;0.00
78316;PMS7003;67572;50.930;18.276;2023-08-30T17:30:32;0.00;0.00;0.00
78316;PMS7003;67572;50.930;18.276;2023-08-30T17:33:37;0.00;0.00;0.00
78316;PMS7003;67572;50.930;18.276;2023-08-30T17:36:40;0.67;0.00;0.00
78316;PMS7003;67572;50.930;18.276;2023-08-30T17:39:49;0.67;0.67;0.67
78316;PMS7003;67572;50.930;18.276;2023-08-30T17:42:52;0.00;0.00;0.00
78316;PMS7003;67572;50.930;18.276;2023-08-30T17:45:58;0.00;0.00;0.00
78316;PMS7003;67572;50.930;18.276;2023-08-30T17:49:04;0.00;0.00;0.00
78316;PMS7003;67572;50.930;18.276;2023-08-30T17:52:07;1.00;1.00;0.33
78316;PMS7003;67572;50.930;18.276;2023-08-30T17:55:11;1.00;1.00;1.00
78316;PMS7003;67572;50.930;18.276;2023-08-30T17:58:17;0.67;0.67;0.67